createdAt,value
2019-02-18T00:00:23.657Z,-445.53
2019-02-18T00:01:23.894Z,-444.93
2019-02-18T00:02:24.145Z,-445.54
2019-02-18T00:03:24.367Z,-444.68
2019-02-18T00:04:24.615Z,-445.87
2019-02-18T00:05:24.906Z,-443.63
2019-02-18T00:06:25.081Z,-446.25
2019-02-18T00:07:25.347Z,-445.91
2019-02-18T00:08:25.570Z,-444.56
2019-02-18T00:09:25.845Z,-444.18
2019-02-18T00:10:26.042Z,-446.47
2019-02-18T00:11:26.271Z,-446.23
2019-02-18T00:12:26.526Z,-445.81
2019-02-18T00:13:26.850Z,-445.05
2019-02-18T00:14:27.022Z,-446.92
2019-02-18T00:15:27.225Z,-448.10
2019-02-18T00:16:27.566Z,-446.85
2019-02-18T00:17:27.705Z,-448.09
2019-02-18T00:18:27.942Z,-449.75
2019-02-18T00:19:28.196Z,-448.18
2019-02-18T00:20:28.417Z,-448.81
2019-02-18T00:21:28.716Z,-447.92
2019-02-18T00:22:28.892Z,-447.72
2019-02-18T00:23:29.102Z,-448.60
2019-02-18T00:24:29.400Z,-448.74
2019-02-18T00:25:29.589Z,-446.09
2019-02-18T00:26:29.845Z,-446.53
2019-02-18T00:27:30.103Z,-445.36
2019-02-18T00:28:30.306Z,-447.02
2019-02-18T00:29:30.586Z,-446.12
2019-02-18T00:30:30.814Z,-449.59
2019-02-18T00:31:31.034Z,-447.82
2019-02-18T00:32:31.283Z,-446.49
2019-02-18T00:33:31.500Z,-446.61
2019-02-18T00:34:31.757Z,-448.63
2019-02-18T00:35:31.967Z,-446.96
2019-02-18T00:36:32.221Z,-442.97
2019-02-18T00:37:32.483Z,-447.76
2019-02-18T00:38:32.811Z,-445.19
2019-02-18T00:39:32.942Z,-445.80
2019-02-18T00:40:33.228Z,-447.31
2019-02-18T00:41:33.428Z,-446.83
2019-02-18T00:42:33.681Z,-447.33
2019-02-18T00:43:33.900Z,-447.86
2019-02-18T00:44:34.153Z,-446.79
2019-02-18T00:45:34.378Z,-447.17
2019-02-18T00:46:34.803Z,-447.45
2019-02-18T00:47:34.921Z,-445.29
2019-02-18T00:48:35.133Z,-444.98
2019-02-18T00:49:35.369Z,-448.44
2019-02-18T00:50:35.614Z,-447.48
2019-02-18T00:51:35.847Z,-447.21
2019-02-18T00:52:36.113Z,-449.39
2019-02-18T00:53:36.323Z,-447.75
2019-02-18T00:54:36.623Z,-448.40
2019-02-18T00:55:36.808Z,-447.35
2019-02-18T00:56:37.013Z,-447.12
2019-02-18T00:57:37.285Z,-448.08
2019-02-18T00:58:37.733Z,-448.30
2019-02-18T00:59:37.744Z,-447.43
2019-02-18T01:00:38.066Z,-447.08
2019-02-18T01:01:38.220Z,-448.53
2019-02-18T01:02:38.544Z,-446.60
2019-02-18T01:03:38.675Z,-447.31
2019-02-18T01:04:38.921Z,-445.40
2019-02-18T01:05:39.187Z,-446.89
2019-02-18T01:06:39.409Z,-446.35
2019-02-18T01:07:39.682Z,-447.12
2019-02-18T01:08:39.861Z,-446.33
2019-02-18T01:09:40.122Z,-446.79
2019-02-18T01:10:40.444Z,-447.29
2019-02-18T01:11:40.675Z,-445.85
2019-02-18T01:12:40.885Z,-447.61
2019-02-18T01:13:41.076Z,-444.26
2019-02-18T01:14:41.330Z,-446.22
2019-02-18T01:15:41.593Z,-444.90
2019-02-18T01:16:41.798Z,-446.06
2019-02-18T01:17:42.062Z,-446.29
2019-02-18T01:18:42.291Z,-447.42
2019-02-18T01:19:42.633Z,-446.87
2019-02-18T01:20:42.793Z,-445.58
2019-02-18T01:21:43.005Z,-444.94
2019-02-18T01:22:43.248Z,-447.85
2019-02-18T01:23:43.457Z,-446.27
2019-02-18T01:24:43.703Z,-446.35
2019-02-18T01:25:44.266Z,-446.35
2019-02-18T01:26:44.206Z,-445.19
2019-02-18T01:27:44.583Z,-450.07
2019-02-18T01:28:44.663Z,-445.52
2019-02-18T01:29:44.890Z,-447.02
2019-02-18T01:30:45.476Z,-445.28
2019-02-18T01:31:45.378Z,-446.24
2019-02-18T01:32:45.635Z,-446.15
2019-02-18T01:33:45.856Z,-443.55
2019-02-18T01:34:46.096Z,-449.17
2019-02-18T01:35:46.394Z,-447.43
2019-02-18T01:36:46.555Z,-445.30
2019-02-18T01:37:46.798Z,-448.19
2019-02-18T01:38:47.036Z,-446.31
2019-02-18T01:39:47.273Z,-447.43
2019-02-18T01:40:47.564Z,-446.52
2019-02-18T01:41:47.728Z,-446.09
2019-02-18T01:42:47.982Z,-445.67
2019-02-18T01:43:48.327Z,-446.40
2019-02-18T01:44:48.513Z,-445.45
2019-02-18T01:45:48.790Z,-446.16
2019-02-18T01:46:48.973Z,-447.72
2019-02-18T01:47:49.222Z,-447.08
2019-02-18T01:48:49.483Z,-448.25
2019-02-18T01:49:49.725Z,-447.03
2019-02-18T01:50:49.977Z,-446.91
2019-02-18T01:51:50.239Z,-446.13
2019-02-18T01:52:50.550Z,-446.66
2019-02-18T01:53:50.691Z,-445.29
2019-02-18T01:54:50.913Z,-446.94
2019-02-18T01:55:51.168Z,-449.32
2019-02-18T01:56:51.406Z,-447.01
2019-02-18T01:57:51.631Z,-447.05
2019-02-18T01:58:51.867Z,-443.77
2019-02-18T01:59:52.105Z,-446.88
2019-02-18T02:00:52.490Z,-444.88
2019-02-18T02:01:52.570Z,-446.60
2019-02-18T02:02:52.818Z,-445.35
2019-02-18T02:03:53.077Z,-448.14
2019-02-18T02:04:53.315Z,-445.76
2019-02-18T02:05:53.575Z,-447.11
2019-02-18T02:06:53.789Z,-447.39
2019-02-18T02:07:56.405Z,-446.82
2019-02-18T02:08:54.318Z,-447.56
2019-02-18T02:09:54.489Z,-444.80
2019-02-18T02:10:54.749Z,-445.36
2019-02-18T02:11:54.972Z,-446.56
2019-02-18T02:12:55.225Z,-446.44
2019-02-18T02:13:55.468Z,-449.60
2019-02-18T02:14:55.674Z,-445.82
2019-02-18T02:15:55.946Z,-445.20
2019-02-18T02:16:56.253Z,-445.15
2019-02-18T02:17:56.421Z,-448.59
2019-02-18T02:18:56.667Z,-444.59
2019-02-18T02:19:56.898Z,-447.05
2019-02-18T02:20:57.122Z,-446.83
2019-02-18T02:21:57.363Z,-445.67
2019-02-18T02:22:57.639Z,-446.81
2019-02-18T02:23:57.880Z,-446.18
2019-02-18T02:24:58.127Z,-446.49
2019-02-18T02:25:58.594Z,-444.25
2019-02-18T02:26:58.563Z,-444.19
2019-02-18T02:27:58.901Z,-443.24
2019-02-18T02:28:59.070Z,-446.39
2019-02-18T02:29:59.288Z,-446.06
2019-02-18T02:31:00.827Z,-445.45
2019-02-18T02:31:59.753Z,-443.94
2019-02-18T02:33:00.014Z,-446.11
2019-02-18T02:34:00.365Z,-443.16
2019-02-18T02:35:00.715Z,-443.27
2019-02-18T02:36:00.814Z,-446.56
2019-02-18T02:37:00.943Z,-445.41
2019-02-18T02:38:07.227Z,-446.93
2019-02-18T02:39:02.438Z,-447.27
2019-02-18T02:40:01.657Z,-445.38
2019-02-18T02:41:01.917Z,-444.77
2019-02-18T02:42:02.294Z,-448.71
2019-02-18T02:43:02.396Z,-445.40
2019-02-18T02:44:02.644Z,-447.80
2019-02-18T02:45:02.864Z,-446.77
2019-02-18T02:46:03.115Z,-445.96
2019-02-18T02:47:03.333Z,-448.67
2019-02-18T02:48:03.568Z,-445.27
2019-02-18T02:49:03.825Z,-447.73
2019-02-18T02:50:04.083Z,-444.59
2019-02-18T02:51:04.285Z,-446.72
2019-02-18T02:52:04.513Z,-448.13
2019-02-18T02:53:04.770Z,-444.72
2019-02-18T02:54:04.989Z,-446.57
2019-02-18T02:55:05.225Z,-447.14
2019-02-18T02:56:05.467Z,-448.12
2019-02-18T02:57:05.702Z,-447.69
2019-02-18T02:58:05.997Z,-444.26
2019-02-18T02:59:06.174Z,-440.71
2019-02-18T03:00:06.386Z,-438.23
2019-02-18T03:01:06.648Z,-440.33
2019-02-18T03:02:06.896Z,-443.88
2019-02-18T03:03:07.156Z,-440.75
2019-02-18T03:04:07.390Z,-442.66
2019-02-18T03:05:07.608Z,-443.58
2019-02-18T03:06:07.849Z,-443.22
2019-02-18T03:07:08.201Z,-441.72
2019-02-18T03:08:19.351Z,-443.25
2019-02-18T03:09:09.569Z,-445.66
2019-02-18T03:10:08.793Z,-445.15
2019-02-18T03:11:09.017Z,-444.66
2019-02-18T03:12:09.281Z,-445.07
2019-02-18T03:13:09.537Z,-444.78
2019-02-18T03:14:10.134Z,-444.42
2019-02-18T03:15:10.115Z,-446.60
2019-02-18T03:16:10.214Z,-445.11
2019-02-18T03:17:10.486Z,-442.94
2019-02-18T03:18:10.699Z,-445.51
2019-02-18T03:19:10.983Z,-447.28
2019-02-18T03:20:11.188Z,-448.63
2019-02-18T03:21:11.420Z,-442.44
2019-02-18T03:22:11.659Z,-443.49
2019-02-18T03:23:11.992Z,-445.54
2019-02-18T03:24:12.172Z,-444.87
2019-02-18T03:25:12.381Z,-445.69
2019-02-18T03:26:12.613Z,-445.40
2019-02-18T03:27:12.869Z,-443.93
2019-02-18T03:28:13.071Z,-447.33
2019-02-18T03:29:13.361Z,-446.00
2019-02-18T03:30:13.557Z,-446.41
2019-02-18T03:31:13.847Z,-449.89
2019-02-18T03:32:14.040Z,-422.52
2019-02-18T03:33:14.256Z,-446.59
2019-02-18T03:34:14.545Z,-447.16
2019-02-18T03:35:14.760Z,-442.75
2019-02-18T03:36:14.985Z,-442.66
2019-02-18T03:37:15.247Z,-420.84
2019-02-18T03:38:15.467Z,-423.11
2019-02-18T03:39:15.775Z,-422.40
2019-02-18T03:40:15.977Z,-421.98
2019-02-18T03:41:16.187Z,-422.40
2019-02-18T03:42:16.461Z,-421.23
2019-02-18T03:43:16.664Z,-420.30
2019-02-18T03:44:16.924Z,-420.90
2019-02-18T03:45:17.126Z,-420.27
2019-02-18T03:46:17.374Z,-421.53
2019-02-18T03:47:17.648Z,-419.09
2019-02-18T03:48:17.955Z,-420.59
2019-02-18T03:49:18.108Z,-424.02
2019-02-18T03:50:18.316Z,-420.81
2019-02-18T03:51:18.559Z,-421.67
2019-02-18T03:52:18.819Z,-420.69
2019-02-18T03:53:19.033Z,-419.28
2019-02-18T03:54:19.294Z,-418.65
2019-02-18T03:55:19.515Z,-422.74
2019-02-18T03:56:19.830Z,-424.15
2019-02-18T03:57:19.999Z,-418.04
2019-02-18T03:58:20.227Z,-420.53
2019-02-18T03:59:20.464Z,-422.00
2019-02-18T04:00:20.750Z,-422.10
2019-02-18T04:01:20.942Z,-419.99
2019-02-18T04:02:21.199Z,-420.44
2019-02-18T04:03:21.414Z,-420.27
2019-02-18T04:04:21.724Z,-419.68
2019-02-18T04:05:21.928Z,-421.67
2019-02-18T04:06:22.126Z,-422.03
2019-02-18T04:07:22.386Z,-420.65
2019-02-18T04:08:22.619Z,-420.32
2019-02-18T04:09:22.860Z,-422.76
2019-02-18T04:10:23.123Z,-423.41
2019-02-18T04:11:23.353Z,-421.35
2019-02-18T04:12:23.640Z,-422.59
2019-02-18T04:13:23.807Z,-424.16
2019-02-18T04:14:24.060Z,-421.75
2019-02-18T04:15:24.569Z,-423.37
2019-02-18T04:16:24.539Z,-426.03
2019-02-18T04:17:24.801Z,-420.17
2019-02-18T04:18:25.017Z,-419.08
2019-02-18T04:19:25.243Z,-423.24
2019-02-18T04:20:25.552Z,-422.21
2019-02-18T04:21:25.813Z,-420.83
2019-02-18T04:22:25.999Z,-422.29
2019-02-18T04:23:26.175Z,-422.52
2019-02-18T04:24:26.448Z,-420.86
2019-02-18T04:25:26.713Z,-423.94
2019-02-18T04:26:26.989Z,-422.28
2019-02-18T04:27:27.191Z,-423.53
2019-02-18T04:28:27.417Z,-419.92
2019-02-18T04:29:27.752Z,-424.59
2019-02-18T04:30:27.918Z,-423.31
2019-02-18T04:31:28.157Z,-423.04
2019-02-18T04:32:28.393Z,-423.93
2019-02-18T04:33:28.608Z,-421.02
2019-02-18T04:34:28.835Z,-424.02
2019-02-18T04:35:29.111Z,-421.19
2019-02-18T04:36:29.363Z,-421.13
2019-02-18T04:37:29.708Z,-421.59
2019-02-18T04:38:29.810Z,-420.90
2019-02-18T04:39:30.029Z,-422.62
2019-02-18T04:40:30.305Z,-419.14
2019-02-18T04:41:30.560Z,-422.15
2019-02-18T04:42:30.795Z,-421.15
2019-02-18T04:43:31.019Z,-421.81
2019-02-18T04:44:31.251Z,-420.80
2019-02-18T04:45:31.538Z,-422.88
2019-02-18T04:46:31.728Z,-422.40
2019-02-18T04:47:31.986Z,-421.21
2019-02-18T04:48:32.205Z,-421.27
2019-02-18T04:49:32.444Z,-421.27
2019-02-18T04:50:32.716Z,-421.89
2019-02-18T04:51:32.941Z,-421.30
2019-02-18T04:52:33.151Z,-420.88
2019-02-18T04:53:33.444Z,-421.14
2019-02-18T04:54:33.617Z,-420.66
2019-02-18T04:55:33.883Z,-424.38
2019-02-18T04:56:34.120Z,-422.10
2019-02-18T04:57:34.346Z,-420.62
2019-02-18T04:58:34.581Z,-422.00
2019-02-18T04:59:34.838Z,-422.55
2019-02-18T05:00:35.083Z,-421.96
2019-02-18T05:01:35.343Z,-420.91
2019-02-18T05:02:35.618Z,-422.62
2019-02-18T05:03:35.793Z,-419.73
2019-02-18T05:04:36.015Z,-423.11
2019-02-18T05:05:36.277Z,-421.26
2019-02-18T05:06:36.513Z,-420.04
2019-02-18T05:07:36.733Z,-420.33
2019-02-18T05:08:36.954Z,-419.22
2019-02-18T05:09:39.729Z,-420.10
2019-02-18T05:10:37.588Z,-422.64
2019-02-18T05:11:37.721Z,-420.85
2019-02-18T05:12:37.924Z,-420.05
2019-02-18T05:13:38.181Z,-422.21
2019-02-18T05:14:38.445Z,-422.15
2019-02-18T05:15:40.114Z,-419.83
2019-02-18T05:16:38.928Z,-419.93
2019-02-18T05:17:39.154Z,-418.64
2019-02-18T05:18:39.485Z,-417.77
2019-02-18T05:19:39.616Z,-420.83
2019-02-18T05:20:39.870Z,-422.21
2019-02-18T05:21:40.100Z,-418.27
2019-02-18T05:22:40.334Z,-420.38
2019-02-18T05:23:40.587Z,-420.65
2019-02-18T05:24:40.790Z,-422.08
2019-02-18T05:25:41.055Z,-420.26
2019-02-18T05:26:41.357Z,-422.58
2019-02-18T05:27:41.500Z,-419.05
2019-02-18T05:28:41.766Z,-420.42
2019-02-18T05:29:41.984Z,-420.59
2019-02-18T05:30:42.217Z,-417.61
2019-02-18T05:31:42.455Z,-418.87
2019-02-18T05:32:42.693Z,-420.43
2019-02-18T05:33:42.950Z,-420.48
2019-02-18T05:34:43.192Z,-421.07
2019-02-18T05:35:43.429Z,-419.89
2019-02-18T05:36:43.667Z,-420.52
2019-02-18T05:37:43.902Z,-419.94
2019-02-18T05:38:44.145Z,-419.52
2019-02-18T05:39:44.371Z,-420.81
2019-02-18T05:40:44.625Z,-417.02
2019-02-18T05:41:44.864Z,-419.79
2019-02-18T05:42:45.121Z,-415.21
2019-02-18T05:43:45.432Z,-418.29
2019-02-18T05:44:45.556Z,-416.79
2019-02-18T05:45:45.813Z,-417.22
2019-02-18T05:46:46.033Z,-417.32
2019-02-18T05:47:46.277Z,-418.85
2019-02-18T05:48:46.533Z,-415.96
2019-02-18T05:49:46.754Z,-417.56
2019-02-18T05:50:47.009Z,-416.63
2019-02-18T05:51:47.371Z,-415.58
2019-02-18T05:52:47.488Z,-415.31
2019-02-18T05:53:47.971Z,-412.30
2019-02-18T05:54:47.964Z,-416.74
2019-02-18T05:55:48.218Z,-411.93
2019-02-18T05:56:48.438Z,-415.58
2019-02-18T05:57:48.691Z,-414.08
2019-02-18T05:58:48.912Z,-412.35
2019-02-18T05:59:49.201Z,-413.09
2019-02-18T06:00:49.385Z,-416.31
2019-02-18T06:01:49.630Z,-414.33
2019-02-18T06:02:49.850Z,-414.17
2019-02-18T06:03:50.081Z,-419.53
2019-02-18T06:04:50.307Z,-418.48
2019-02-18T06:05:50.581Z,-416.01
2019-02-18T06:06:50.818Z,-417.70
2019-02-18T06:07:51.070Z,-412.46
2019-02-18T06:08:51.270Z,-414.39
2019-02-18T06:09:51.471Z,-415.38
2019-02-18T06:10:51.742Z,-415.64
2019-02-18T06:11:51.996Z,-412.13
2019-02-18T06:12:52.222Z,-413.61
2019-02-18T06:13:52.485Z,-418.64
2019-02-18T06:14:52.695Z,-416.12
2019-02-18T06:15:52.967Z,-415.71
2019-02-18T06:16:53.259Z,-418.79
2019-02-18T06:17:53.439Z,-418.33
2019-02-18T06:18:53.688Z,-419.37
2019-02-18T06:19:53.906Z,-418.64
2019-02-18T06:20:54.127Z,-416.48
2019-02-18T06:21:54.393Z,-416.22
2019-02-18T06:22:54.659Z,-417.78
2019-02-18T06:23:54.913Z,-417.73
2019-02-18T06:24:55.273Z,-415.69
2019-02-18T06:25:55.342Z,-417.59
2019-02-18T06:26:55.604Z,-418.25
2019-02-18T06:27:55.843Z,-417.17
2019-02-18T06:28:56.081Z,-416.62
2019-02-18T06:29:56.306Z,-415.93
2019-02-18T06:30:56.549Z,-415.61
2019-02-18T06:31:56.789Z,-419.10
2019-02-18T06:32:57.110Z,-416.94
2019-02-18T06:33:57.269Z,-416.98
2019-02-18T06:34:57.487Z,-415.63
2019-02-18T06:35:57.731Z,-411.85
2019-02-18T06:36:57.968Z,-409.82
2019-02-18T06:37:58.207Z,-412.16
2019-02-18T06:38:58.462Z,-412.40
2019-02-18T06:39:58.683Z,-414.81
2019-02-18T06:40:58.979Z,-414.72
2019-02-18T06:41:59.157Z,-417.40
2019-02-18T06:42:59.383Z,-414.48
2019-02-18T06:43:59.636Z,-401.04
2019-02-18T06:44:59.876Z,-403.10
2019-02-18T06:46:00.107Z,-402.38
2019-02-18T06:47:00.368Z,-406.12
2019-02-18T06:48:00.620Z,-408.85
2019-02-18T06:49:00.885Z,-409.41
2019-02-18T06:50:01.070Z,-409.23
2019-02-18T06:51:01.304Z,-411.79
2019-02-18T06:52:01.566Z,-412.74
2019-02-18T06:53:01.789Z,-408.98
2019-02-18T06:54:02.041Z,-414.57
2019-02-18T06:55:02.245Z,-410.87
2019-02-18T06:56:02.486Z,-410.70
2019-02-18T06:57:02.752Z,-410.37
2019-02-18T06:58:03.101Z,-411.51
2019-02-18T06:59:03.861Z,-411.46
2019-02-18T07:00:03.430Z,-413.32
2019-02-18T07:01:03.678Z,-415.59
2019-02-18T07:02:03.931Z,-412.80
2019-02-18T07:03:04.166Z,-414.65
2019-02-18T07:04:04.413Z,-413.99
2019-02-18T07:05:04.649Z,-414.21
2019-02-18T07:06:04.976Z,-413.27
2019-02-18T07:07:05.118Z,-413.83
2019-02-18T07:08:05.363Z,-414.68
2019-02-18T07:09:05.600Z,-412.61
2019-02-18T07:10:05.820Z,-412.87
2019-02-18T07:11:06.064Z,-415.61
2019-02-18T07:12:06.334Z,-414.28
2019-02-18T07:13:06.648Z,-415.51
2019-02-18T07:14:06.873Z,-413.38
2019-02-18T07:15:07.014Z,-412.73
2019-02-18T07:16:07.246Z,-414.06
2019-02-18T07:17:07.513Z,-413.36
2019-02-18T07:18:07.743Z,-414.68
2019-02-18T07:19:07.982Z,-413.93
2019-02-18T07:20:08.231Z,-412.80
2019-02-18T07:21:08.464Z,-412.70
2019-02-18T07:22:08.745Z,-411.20
2019-02-18T07:23:08.923Z,-412.54
2019-02-18T07:24:09.170Z,-412.16
2019-02-18T07:25:09.419Z,-412.19
2019-02-18T07:26:09.653Z,-411.32
2019-02-18T07:27:09.927Z,-411.73
2019-02-18T07:28:10.126Z,-414.65
2019-02-18T07:29:10.399Z,-414.71
2019-02-18T07:30:10.675Z,-414.55
2019-02-18T07:31:10.957Z,-413.26
2019-02-18T07:32:11.391Z,-412.93
2019-02-18T07:33:11.354Z,-412.48
2019-02-18T07:34:11.597Z,-411.57
2019-02-18T07:35:11.834Z,-409.00
2019-02-18T07:36:12.062Z,-408.89
2019-02-18T07:37:12.320Z,-411.13
2019-02-18T07:38:12.545Z,-410.36
2019-02-18T07:39:12.996Z,-413.56
2019-02-18T07:40:13.029Z,-410.49
2019-02-18T07:41:13.258Z,-412.32
2019-02-18T07:42:13.508Z,-411.43
2019-02-18T07:43:13.719Z,-410.20
2019-02-18T07:44:14.009Z,-412.77
2019-02-18T07:45:14.205Z,-410.67
2019-02-18T07:46:14.441Z,-413.24
2019-02-18T07:47:14.765Z,-410.85
2019-02-18T07:48:14.982Z,-411.76
2019-02-18T07:49:15.154Z,-414.42
2019-02-18T07:50:20.597Z,-412.83
2019-02-18T07:51:16.642Z,-415.26
2019-02-18T07:52:15.908Z,-412.26
2019-02-18T07:53:16.189Z,-415.58
2019-02-18T07:54:16.356Z,-413.61
2019-02-18T07:55:16.632Z,-413.52
2019-02-18T07:56:16.815Z,-433.94
2019-02-18T07:57:17.104Z,-435.16
2019-02-18T07:58:17.325Z,-433.31
2019-02-18T07:59:17.551Z,-436.08
2019-02-18T08:00:17.822Z,-436.57
2019-02-18T08:01:18.014Z,-435.66
2019-02-18T08:02:18.267Z,-433.74
2019-02-18T08:03:18.581Z,-433.99
2019-02-18T08:04:18.721Z,-436.57
2019-02-18T08:05:18.999Z,-435.16
2019-02-18T08:06:19.232Z,-435.58
2019-02-18T08:07:19.458Z,-439.12
2019-02-18T08:08:19.677Z,-436.38
2019-02-18T08:09:19.933Z,-435.47
2019-02-18T08:10:20.197Z,-436.35
2019-02-18T08:11:20.442Z,-438.22
2019-02-18T08:12:20.755Z,-437.58
2019-02-18T08:13:20.882Z,-439.16
2019-02-18T08:14:21.141Z,-437.15
2019-02-18T08:15:21.404Z,-438.61
2019-02-18T08:16:21.616Z,-438.08
2019-02-18T08:17:21.864Z,-433.12
2019-02-18T08:18:22.092Z,-437.22
2019-02-18T08:19:22.309Z,-435.94
2019-02-18T08:20:22.700Z,-436.88
2019-02-18T08:21:22.806Z,-436.78
2019-02-18T08:22:23.041Z,-436.79
2019-02-18T08:23:23.264Z,-436.38
2019-02-18T08:24:23.525Z,-435.84
2019-02-18T08:25:23.805Z,-435.39
2019-02-18T08:26:24.062Z,-437.90
2019-02-18T08:27:24.258Z,-438.66
2019-02-18T08:28:24.636Z,-436.45
2019-02-18T08:29:24.842Z,-436.05
2019-02-18T08:30:25.074Z,-434.67
2019-02-18T08:31:25.253Z,-436.00
2019-02-18T08:32:25.497Z,-410.40
2019-02-18T08:33:25.763Z,-436.61
2019-02-18T08:34:25.981Z,-410.83
2019-02-18T08:35:26.595Z,-435.53
2019-02-18T08:36:26.551Z,-432.62
2019-02-18T08:37:26.660Z,-436.13
2019-02-18T08:38:26.931Z,-436.37
2019-02-18T08:39:27.170Z,-437.30
2019-02-18T08:40:27.444Z,-434.29
2019-02-18T08:41:27.625Z,-434.05
2019-02-18T08:42:27.870Z,-437.18
2019-02-18T08:43:28.136Z,-435.74
2019-02-18T08:44:28.469Z,-438.90
2019-02-18T08:45:28.663Z,-434.82
2019-02-18T08:46:28.827Z,-436.82
2019-02-18T08:47:29.059Z,-436.19
2019-02-18T08:48:29.344Z,-434.79
2019-02-18T08:49:29.565Z,-438.79
2019-02-18T08:50:29.834Z,-437.65
2019-02-18T08:51:30.029Z,-436.86
2019-02-18T08:52:30.289Z,-437.73
2019-02-18T08:53:30.673Z,-436.75
2019-02-18T08:54:30.806Z,-434.72
2019-02-18T08:55:31.027Z,-437.86
2019-02-18T08:56:31.217Z,-435.84
2019-02-18T08:57:31.458Z,-436.82
2019-02-18T08:58:31.733Z,-437.43
2019-02-18T08:59:31.973Z,-440.71
2019-02-18T09:00:32.266Z,-445.15
2019-02-18T09:01:32.585Z,-447.12
2019-02-18T09:02:32.667Z,-438.27
2019-02-18T09:03:33.016Z,-437.05
2019-02-18T09:04:33.170Z,-436.47
2019-02-18T09:05:33.441Z,-436.11
2019-02-18T09:06:33.620Z,-438.22
2019-02-18T09:07:33.886Z,-436.66
2019-02-18T09:08:34.120Z,-436.60
2019-02-18T09:09:34.427Z,-436.69
2019-02-18T09:10:34.854Z,-432.53
2019-02-18T09:11:34.826Z,-429.99
2019-02-18T09:12:35.051Z,-438.32
2019-02-18T09:13:35.334Z,-438.47
2019-02-18T09:14:35.514Z,-435.08
2019-02-18T09:15:35.809Z,-435.09
2019-02-18T09:16:36.006Z,-437.61
2019-02-18T09:17:36.293Z,-438.73
2019-02-18T09:18:36.491Z,-432.60
2019-02-18T09:19:36.738Z,-437.72
2019-02-18T09:20:37.011Z,-437.33
2019-02-18T09:21:37.220Z,-437.89
2019-02-18T09:22:37.446Z,-433.46
2019-02-18T09:23:37.708Z,-431.26
2019-02-18T09:24:37.940Z,-431.36
2019-02-18T09:25:38.296Z,-434.64
2019-02-18T09:26:38.432Z,-437.78
2019-02-18T09:27:38.643Z,-434.18
2019-02-18T09:28:38.908Z,-435.22
2019-02-18T09:29:39.126Z,-435.45
2019-02-18T09:30:39.437Z,-435.89
2019-02-18T09:31:39.626Z,-438.51
2019-02-18T09:32:39.871Z,-437.99
2019-02-18T09:33:40.144Z,-437.35
2019-02-18T09:34:40.475Z,-435.35
2019-02-18T09:35:40.622Z,-435.08
2019-02-18T09:36:40.838Z,-437.82
2019-02-18T09:37:41.118Z,-438.67
2019-02-18T09:38:41.340Z,-441.11
2019-02-18T09:39:41.542Z,-438.13
2019-02-18T09:40:45.110Z,-436.81
2019-02-18T09:41:43.032Z,-436.27
2019-02-18T09:42:42.410Z,-435.37
2019-02-18T09:43:42.517Z,-436.71
2019-02-18T09:44:42.723Z,-436.60
2019-02-18T09:45:42.980Z,-438.31
2019-02-18T09:46:43.239Z,-439.07
2019-02-18T09:47:43.430Z,-439.65
2019-02-18T09:48:43.695Z,-439.55
2019-02-18T09:49:43.923Z,-439.86
2019-02-18T09:50:44.203Z,-442.59
2019-02-18T09:51:44.478Z,-441.61
2019-02-18T09:52:44.604Z,-442.33
2019-02-18T09:53:44.899Z,-442.16
2019-02-18T09:54:45.124Z,-438.61
2019-02-18T09:55:45.361Z,-440.63
2019-02-18T09:56:45.639Z,-439.70
2019-02-18T09:57:45.841Z,-441.23
2019-02-18T09:58:46.184Z,-442.85
2019-02-18T09:59:46.311Z,-441.20
2019-02-18T10:00:46.559Z,-442.67
2019-02-18T10:01:46.826Z,-441.53
2019-02-18T10:02:47.118Z,-445.81
2019-02-18T10:03:47.293Z,-443.42
2019-02-18T10:04:47.503Z,-438.68
2019-02-18T10:05:47.746Z,-440.63
2019-02-18T10:06:48.057Z,-442.59
2019-02-18T10:07:48.314Z,-441.66
2019-02-18T10:08:48.509Z,-441.68
2019-02-18T10:09:48.698Z,-437.92
2019-02-18T10:10:55.433Z,-441.22
2019-02-18T10:11:50.222Z,-442.51
2019-02-18T10:12:49.434Z,-444.77
2019-02-18T10:13:49.708Z,-447.15
2019-02-18T10:14:49.935Z,-443.90
2019-02-18T10:15:50.274Z,-445.08
2019-02-18T10:16:50.420Z,-443.52
2019-02-18T10:17:50.631Z,-444.35
2019-02-18T10:18:50.886Z,-446.04
2019-02-18T10:19:51.111Z,-442.82
2019-02-18T10:20:51.329Z,-442.96
2019-02-18T10:21:51.607Z,-442.90
2019-02-18T10:22:51.833Z,-444.42
2019-02-18T10:23:52.253Z,-444.07
2019-02-18T10:24:52.305Z,-447.38
2019-02-18T10:25:52.535Z,-446.14
2019-02-18T10:26:52.818Z,-442.44
2019-02-18T10:27:53.031Z,-441.63
2019-02-18T10:28:53.273Z,-439.65
2019-02-18T10:29:53.504Z,-438.82
2019-02-18T10:30:53.743Z,-440.02
2019-02-18T10:31:54.021Z,-443.85
2019-02-18T10:32:54.200Z,-440.91
2019-02-18T10:33:54.446Z,-443.87
2019-02-18T10:34:54.708Z,-437.81
2019-02-18T10:35:54.941Z,-440.13
2019-02-18T10:36:55.207Z,-438.42
2019-02-18T10:37:55.562Z,-438.29
2019-02-18T10:38:55.662Z,-437.11
2019-02-18T10:39:55.970Z,-442.77
2019-02-18T10:41:05.983Z,-443.97
2019-02-18T10:41:57.410Z,-441.75
2019-02-18T10:42:56.602Z,-441.72
2019-02-18T10:43:56.863Z,-418.74
2019-02-18T10:44:57.118Z,-444.68
2019-02-18T10:45:57.341Z,-440.59
2019-02-18T10:46:57.594Z,-441.27
2019-02-18T10:47:58.117Z,-443.71
2019-02-18T10:48:58.104Z,-440.42
2019-02-18T10:49:58.306Z,-441.42
2019-02-18T10:50:58.528Z,-443.18
2019-02-18T10:51:58.792Z,-441.60
2019-02-18T10:52:59.005Z,-441.44
2019-02-18T10:53:59.243Z,-440.49
2019-02-18T10:54:59.498Z,-442.41
2019-02-18T10:55:59.713Z,-433.99
2019-02-18T10:57:00.337Z,-436.78
2019-02-18T10:58:00.397Z,-437.53
2019-02-18T10:59:00.644Z,-440.08
2019-02-18T11:00:00.870Z,-440.36
2019-02-18T11:01:01.104Z,-440.22
2019-02-18T11:02:01.383Z,-441.06
2019-02-18T11:03:01.605Z,-439.11
2019-02-18T11:04:01.844Z,-441.08
2019-02-18T11:05:02.136Z,-441.37
2019-02-18T11:06:02.317Z,-440.68
2019-02-18T11:07:02.589Z,-445.30
2019-02-18T11:08:02.792Z,-442.06
2019-02-18T11:09:03.022Z,-443.20
2019-02-18T11:10:03.277Z,-440.78
2019-02-18T11:11:03.474Z,-441.63
2019-02-18T11:12:03.786Z,-443.27
2019-02-18T11:13:04.059Z,-445.26
2019-02-18T11:14:04.216Z,-440.45
2019-02-18T11:15:04.476Z,-440.03
2019-02-18T11:16:04.690Z,-440.68
2019-02-18T11:17:04.979Z,-440.54
2019-02-18T11:18:05.150Z,-439.98
2019-02-18T11:19:05.403Z,-439.19
2019-02-18T11:20:05.654Z,-440.55
2019-02-18T11:21:05.904Z,-436.27
2019-02-18T11:22:06.137Z,-438.91
2019-02-18T11:23:06.328Z,-437.61
2019-02-18T11:24:06.586Z,-443.32
2019-02-18T11:25:06.839Z,-442.17
2019-02-18T11:26:07.059Z,-443.86
2019-02-18T11:27:07.337Z,-449.28
2019-02-18T11:28:07.540Z,-447.10
2019-02-18T11:29:07.795Z,-441.65
2019-02-18T11:30:08.120Z,-444.27
2019-02-18T11:31:08.255Z,-441.29
2019-02-18T11:32:08.507Z,-446.79
2019-02-18T11:33:08.735Z,-442.57
2019-02-18T11:34:08.950Z,-441.84
2019-02-18T11:35:09.219Z,-437.44
2019-02-18T11:36:09.440Z,-436.99
2019-02-18T11:37:09.713Z,-440.82
2019-02-18T11:38:10.015Z,-441.43
2019-02-18T11:39:10.136Z,-445.40
2019-02-18T11:40:10.399Z,-447.65
2019-02-18T11:41:10.621Z,-446.35
2019-02-18T11:42:10.884Z,-442.42
2019-02-18T11:43:11.123Z,-443.08
2019-02-18T11:44:11.348Z,-442.89
2019-02-18T11:45:11.603Z,-444.81
2019-02-18T11:46:11.906Z,-443.57
2019-02-18T11:47:12.058Z,-442.06
2019-02-18T11:48:12.288Z,-446.72
2019-02-18T11:49:12.536Z,-445.55
2019-02-18T11:50:12.778Z,-447.89
2019-02-18T11:51:12.999Z,-444.04
2019-02-18T11:52:13.265Z,-444.07
2019-02-18T11:53:13.516Z,-445.34
2019-02-18T11:54:13.799Z,-443.98
2019-02-18T11:55:13.902Z,-440.40
2019-02-18T11:56:14.147Z,-441.34
2019-02-18T11:57:14.364Z,-436.19
2019-02-18T11:58:14.630Z,-436.22
2019-02-18T11:59:23.710Z,-438.88
2019-02-18T12:00:16.136Z,-442.97
2019-02-18T12:01:15.378Z,-443.42
2019-02-18T12:02:15.811Z,-443.31
2019-02-18T12:03:15.963Z,-439.25
2019-02-18T12:04:16.090Z,-438.36
2019-02-18T12:05:16.350Z,-435.23
2019-02-18T12:06:16.544Z,-442.91
2019-02-18T12:07:16.794Z,-440.34
2019-02-18T12:08:17.070Z,-442.04